sensor_id;sensor_type;location;lat;lon;timestamp;pressure;altitude;pressure_sealevel;temperature;humidity
56456;BME280;42354;53.218;6.564;2023-07-20T00:01:10;46974.97;;;-142.92;100.00
56456;BME280;42354;53.218;6.564;2023-07-20T00:03:36;46962.66;;;-142.92;100.00
56456;BME280;42354;53.218;6.564;2023-07-20T00:06:01;46964.72;;;-142.92;100.00
56456;BME280;42354;53.218;6.564;2023-07-20T00:08:26;46970.88;;;-142.92;100.00
56456;BME280;42354;53.218;6.564;2023-07-20T00:10:52;46966.75;;;-142.92;100.00
56456;BME280;42354;53.218;6.564;2023-07-20T00:13:18;46974.97;;;-142.92;100.00
56456;BME280;42354;53.218;6.564;2023-07-20T00:15:44;46983.19;;;-142.92;100.00
56456;BME280;42354;53.218;6.564;2023-07-20T00:18:10;46974.97;;;-142.92;100.00
56456;BME280;42354;53.218;6.564;2023-07-20T00:20:35;46960.59;;;-142.92;100.00
56456;BME280;42354;53.218;6.564;2023-07-20T00:23:00;46954.44;;;-142.92;100.00
56456;BME280;42354;53.218;6.564;2023-07-20T00:25:26;46956.50;;;-142.92;100.00
56456;BME280;42354;53.218;6.564;2023-07-20T00:27:51;46972.91;;;-142.92;100.00
56456;BME280;42354;53.218;6.564;2023-07-20T00:30:17;46962.66;;;-142.92;100.00
56456;BME280;42354;53.218;6.564;2023-07-20T00:32:44;46954.44;;;-142.92;100.00
56456;BME280;42354;53.218;6.564;2023-07-20T00:35:09;46956.50;;;-142.92;100.00
56456;BME280;42354;53.218;6.564;2023-07-20T00:37:36;46970.88;;;-142.92;100.00
56456;BME280;42354;53.218;6.564;2023-07-20T00:40:01;46954.44;;;-142.92;100.00
56456;BME280;42354;53.218;6.564;2023-07-20T00:42:29;46968.81;;;-142.92;100.00
56456;BME280;42354;53.218;6.564;2023-07-20T00:44:55;46962.66;;;-142.92;100.00
56456;BME280;42354;53.218;6.564;2023-07-20T00:47:20;46977.03;;;-142.92;100.00
56456;BME280;42354;53.218;6.564;2023-07-20T00:49:46;46970.88;;;-142.92;100.00
56456;BME280;42354;53.218;6.564;2023-07-20T00:52:13;46966.75;;;-142.92;100.00
56456;BME280;42354;53.218;6.564;2023-07-20T00:54:40;46983.19;;;-142.92;100.00
56456;BME280;42354;53.218;6.564;2023-07-20T00:57:07;46987.28;;;-142.92;100.00
56456;BME280;42354;53.218;6.564;2023-07-20T00:59:34;46966.75;;;-142.92;100.00
56456;BME280;42354;53.218;6.564;2023-07-20T01:01:59;46979.06;;;-142.92;100.00
56456;BME280;42354;53.218;6.564;2023-07-20T01:04:24;46960.59;;;-142.92;100.00
56456;BME280;42354;53.218;6.564;2023-07-20T01:07:13;46979.06;;;-142.92;100.00
56456;BME280;42354;53.218;6.564;2023-07-20T01:12:43;46970.88;;;-142.92;100.00
56456;BME280;42354;53.218;6.564;2023-07-20T01:15:12;46974.97;;;-142.92;100.00
56456;BME280;42354;53.218;6.564;2023-07-20T01:17:37;46983.19;;;-142.92;100.00
56456;BME280;42354;53.218;6.564;2023-07-20T01:20:03;46985.22;;;-142.92;100.00
56456;BME280;42354;53.218;6.564;2023-07-20T01:30:43;46983.19;;;-142.92;100.00
56456;BME280;42354;53.218;6.564;2023-07-20T01:33:13;46977.03;;;-142.92;100.00
56456;BME280;42354;53.218;6.564;2023-07-20T01:35:41;46974.97;;;-142.92;100.00
56456;BME280;42354;53.218;6.564;2023-07-20T01:38:08;46968.81;;;-142.92;100.00
56456;BME280;42354;53.218;6.564;2023-07-20T01:40:35;46987.28;;;-142.92;100.00
56456;BME280;42354;53.218;6.564;2023-07-20T01:43:02;46983.19;;;-142.92;100.00
56456;BME280;42354;53.218;6.564;2023-07-20T01:45:27;46981.13;;;-142.92;100.00
56456;BME280;42354;53.218;6.564;2023-07-20T01:47:53;46962.66;;;-142.92;100.00
56456;BME280;42354;53.218;6.564;2023-07-20T01:50:18;46958.56;;;-142.92;100.00
56456;BME280;42354;53.218;6.564;2023-07-20T01:52:43;46968.81;;;-142.92;100.00
56456;BME280;42354;53.218;6.564;2023-07-20T01:55:09;46960.59;;;-142.92;100.00
56456;BME280;42354;53.218;6.564;2023-07-20T01:57:34;46970.88;;;-142.92;100.00
56456;BME280;42354;53.218;6.564;2023-07-20T02:00:00;46979.06;;;-142.92;100.00
56456;BME280;42354;53.218;6.564;2023-07-20T02:02:26;46972.91;;;-142.92;100.00
56456;BME280;42354;53.218;6.564;2023-07-20T02:04:53;46958.56;;;-142.92;100.00
56456;BME280;42354;53.218;6.564;2023-07-20T02:07:19;46987.28;;;-142.92;100.00
56456;BME280;42354;53.218;6.564;2023-07-20T02:09:44;46970.88;;;-142.92;100.00
56456;BME280;42354;53.218;6.564;2023-07-20T02:12:10;46977.03;;;-142.92;100.00
56456;BME280;42354;53.218;6.564;2023-07-20T02:14:35;46979.06;;;-142.92;100.00
56456;BME280;42354;53.218;6.564;2023-07-20T02:17:01;46960.59;;;-142.92;100.00
56456;BME280;42354;53.218;6.564;2023-07-20T02:19:26;46981.13;;;-142.92;100.00
56456;BME280;42354;53.218;6.564;2023-07-20T02:21:52;46970.88;;;-142.92;100.00
56456;BME280;42354;53.218;6.564;2023-07-20T02:24:18;46966.75;;;-142.92;100.00
56456;BME280;42354;53.218;6.564;2023-07-20T02:26:43;46970.88;;;-142.92;100.00
56456;BME280;42354;53.218;6.564;2023-07-20T02:29:09;46964.72;;;-142.92;100.00
56456;BME280;42354;53.218;6.564;2023-07-20T02:31:37;46977.03;;;-142.92;100.00
56456;BME280;42354;53.218;6.564;2023-07-20T02:34:07;46968.81;;;-142.92;100.00
56456;BME280;42354;53.218;6.564;2023-07-20T02:36:34;46970.88;;;-142.92;100.00
56456;BME280;42354;53.218;6.564;2023-07-20T02:38:59;46960.59;;;-142.92;100.00
56456;BME280;42354;53.218;6.564;2023-07-20T02:41:25;46979.06;;;-142.92;100.00
56456;BME280;42354;53.218;6.564;2023-07-20T02:43:50;46974.97;;;-142.92;100.00
56456;BME280;42354;53.218;6.564;2023-07-20T02:46:16;46979.06;;;-142.92;100.00
56456;BME280;42354;53.218;6.564;2023-07-20T02:48:41;46999.59;;;-142.92;100.00
56456;BME280;42354;53.218;6.564;2023-07-20T02:51:06;46999.59;;;-142.92;100.00
56456;BME280;42354;53.218;6.564;2023-07-20T02:53:33;46974.97;;;-142.92;100.00
56456;BME280;42354;53.218;6.564;2023-07-20T02:55:58;46983.19;;;-142.92;100.00
56456;BME280;42354;53.218;6.564;2023-07-20T02:58:24;46958.56;;;-142.92;100.00
56456;BME280;42354;53.218;6.564;2023-07-20T03:00:49;46979.06;;;-142.92;100.00
56456;BME280;42354;53.218;6.564;2023-07-20T03:03:15;46966.75;;;-142.92;100.00
56456;BME280;42354;53.218;6.564;2023-07-20T03:05:41;46989.34;;;-142.92;100.00
56456;BME280;42354;53.218;6.564;2023-07-20T03:08:06;46979.06;;;-142.92;100.00
56456;BME280;42354;53.218;6.564;2023-07-20T03:10:32;46983.19;;;-142.92;100.00
56456;BME280;42354;53.218;6.564;2023-07-20T03:12:58;46968.81;;;-142.92;100.00
56456;BME280;42354;53.218;6.564;2023-07-20T03:15:23;46983.19;;;-142.92;100.00
56456;BME280;42354;53.218;6.564;2023-07-20T03:17:49;46997.53;;;-142.92;100.00
56456;BME280;42354;53.218;6.564;2023-07-20T03:20:15;46972.91;;;-142.92;100.00
56456;BME280;42354;53.218;6.564;2023-07-20T03:22:41;46987.28;;;-142.92;100.00
56456;BME280;42354;53.218;6.564;2023-07-20T03:25:07;46972.91;;;-142.92;100.00
56456;BME280;42354;53.218;6.564;2023-07-20T03:27:33;46960.59;;;-142.92;100.00
56456;BME280;42354;53.218;6.564;2023-07-20T03:29:58;46964.72;;;-142.92;100.00
56456;BME280;42354;53.218;6.564;2023-07-20T03:32:23;46974.97;;;-142.92;100.00
56456;BME280;42354;53.218;6.564;2023-07-20T03:34:49;46979.06;;;-142.92;100.00
56456;BME280;42354;53.218;6.564;2023-07-20T03:37:14;46987.28;;;-142.92;100.00
56456;BME280;42354;53.218;6.564;2023-07-20T03:39:40;46970.88;;;-142.92;100.00
56456;BME280;42354;53.218;6.564;2023-07-20T03:42:05;46974.97;;;-142.92;100.00
56456;BME280;42354;53.218;6.564;2023-07-20T03:44:31;46983.19;;;-142.92;100.00
56456;BME280;42354;53.218;6.564;2023-07-20T03:46:58;46979.06;;;-142.92;100.00
56456;BME280;42354;53.218;6.564;2023-07-20T03:49:23;46966.75;;;-142.92;100.00
56456;BME280;42354;53.218;6.564;2023-07-20T03:51:49;46962.66;;;-142.92;100.00
56456;BME280;42354;53.218;6.564;2023-07-20T03:54:14;46974.97;;;-142.92;100.00
56456;BME280;42354;53.218;6.564;2023-07-20T03:56:39;46968.81;;;-142.92;100.00
56456;BME280;42354;53.218;6.564;2023-07-20T03:59:05;46977.03;;;-142.92;100.00
56456;BME280;42354;53.218;6.564;2023-07-20T04:01:30;46977.03;;;-142.92;100.00
56456;BME280;42354;53.218;6.564;2023-07-20T04:04:01;46993.44;;;-142.92;100.00
56456;BME280;42354;53.218;6.564;2023-07-20T04:06:27;46974.97;;;-142.92;100.00
56456;BME280;42354;53.218;6.564;2023-07-20T04:08:52;46989.34;;;-142.92;100.00
56456;BME280;42354;53.218;6.564;2023-07-20T04:11:17;46987.28;;;-142.92;100.00
56456;BME280;42354;53.218;6.564;2023-07-20T04:13:44;46981.13;;;-142.92;100.00
56456;BME280;42354;53.218;6.564;2023-07-20T04:16:10;46997.53;;;-142.92;100.00
56456;BME280;42354;53.218;6.564;2023-07-20T04:18:35;46970.88;;;-142.92;100.00
56456;BME280;42354;53.218;6.564;2023-07-20T04:21:01;46983.19;;;-142.92;100.00
56456;BME280;42354;53.218;6.564;2023-07-20T04:23:27;46966.75;;;-142.92;100.00
56456;BME280;42354;53.218;6.564;2023-07-20T04:25:52;46974.97;;;-142.92;100.00
56456;BME280;42354;53.218;6.564;2023-07-20T04:28:18;46979.06;;;-142.92;100.00
56456;BME280;42354;53.218;6.564;2023-07-20T04:30:43;46989.34;;;-142.92;100.00
56456;BME280;42354;53.218;6.564;2023-07-20T04:33:09;46974.97;;;-142.92;100.00
56456;BME280;42354;53.218;6.564;2023-07-20T04:35:52;46977.03;;;-142.92;100.00
56456;BME280;42354;53.218;6.564;2023-07-20T04:38:18;46968.81;;;-142.92;100.00
56456;BME280;42354;53.218;6.564;2023-07-20T04:40:49;46987.28;;;-142.92;100.00
56456;BME280;42354;53.218;6.564;2023-07-20T04:43:16;46979.06;;;-142.92;100.00
56456;BME280;42354;53.218;6.564;2023-07-20T04:45:41;46981.13;;;-142.92;100.00
56456;BME280;42354;53.218;6.564;2023-07-20T04:48:10;46979.06;;;-142.92;100.00
56456;BME280;42354;53.218;6.564;2023-07-20T04:50:44;46987.28;;;-142.92;100.00
56456;BME280;42354;53.218;6.564;2023-07-20T04:53:10;46983.19;;;-142.92;100.00
56456;BME280;42354;53.218;6.564;2023-07-20T04:55:38;46987.28;;;-142.92;100.00
56456;BME280;42354;53.218;6.564;2023-07-20T04:58:04;46977.03;;;-142.92;100.00
56456;BME280;42354;53.218;6.564;2023-07-20T05:00:32;46979.06;;;-142.92;100.00
56456;BME280;42354;53.218;6.564;2023-07-20T05:02:58;46993.44;;;-142.92;100.00
56456;BME280;42354;53.218;6.564;2023-07-20T05:05:23;46974.97;;;-142.92;100.00
56456;BME280;42354;53.218;6.564;2023-07-20T05:07:49;46979.06;;;-142.92;100.00
56456;BME280;42354;53.218;6.564;2023-07-20T05:10:14;46974.97;;;-142.92;100.00
56456;BME280;42354;53.218;6.564;2023-07-20T05:12:40;46966.75;;;-142.92;100.00
56456;BME280;42354;53.218;6.564;2023-07-20T05:15:05;46974.97;;;-142.92;100.00
56456;BME280;42354;53.218;6.564;2023-07-20T05:17:31;46979.06;;;-142.92;100.00
56456;BME280;42354;53.218;6.564;2023-07-20T05:19:56;46966.75;;;-142.92;100.00
56456;BME280;42354;53.218;6.564;2023-07-20T05:22:22;46977.03;;;-142.92;100.00
56456;BME280;42354;53.218;6.564;2023-07-20T05:24:48;46983.19;;;-142.92;100.00
56456;BME280;42354;53.218;6.564;2023-07-20T05:27:13;46989.34;;;-142.92;100.00
56456;BME280;42354;53.218;6.564;2023-07-20T05:29:44;46987.28;;;-142.92;100.00
56456;BME280;42354;53.218;6.564;2023-07-20T05:32:09;46987.28;;;-142.92;100.00
56456;BME280;42354;53.218;6.564;2023-07-20T05:34:35;46985.22;;;-142.92;100.00
56456;BME280;42354;53.218;6.564;2023-07-20T05:37:00;46972.91;;;-142.92;100.00
56456;BME280;42354;53.218;6.564;2023-07-20T05:39:25;46979.06;;;-142.92;100.00
56456;BME280;42354;53.218;6.564;2023-07-20T05:41:51;46983.19;;;-142.92;100.00
56456;BME280;42354;53.218;6.564;2023-07-20T05:44:16;46979.06;;;-142.92;99.13
56456;BME280;42354;53.218;6.564;2023-07-20T05:46:41;46970.88;;;-142.92;98.16
56456;BME280;42354;53.218;6.564;2023-07-20T05:49:07;46987.28;;;-142.92;98.20
56456;BME280;42354;53.218;6.564;2023-07-20T05:51:32;46964.72;;;-142.92;96.13
56456;BME280;42354;53.218;6.564;2023-07-20T05:53:58;46962.66;;;-142.92;93.92
56456;BME280;42354;53.218;6.564;2023-07-20T05:56:23;46987.28;;;-142.92;92.79
56456;BME280;42354;53.218;6.564;2023-07-20T05:58:48;46972.91;;;-142.92;91.89
56456;BME280;42354;53.218;6.564;2023-07-20T06:01:14;46985.22;;;-142.92;89.81
56456;BME280;42354;53.218;6.564;2023-07-20T06:03:39;46987.28;;;-142.92;90.73
56456;BME280;42354;53.218;6.564;2023-07-20T06:06:04;46964.72;;;-142.92;88.70
56456;BME280;42354;53.218;6.564;2023-07-20T06:08:31;46974.97;;;-142.92;88.02
56456;BME280;42354;53.218;6.564;2023-07-20T06:10:57;46972.91;;;-142.92;88.51
56456;BME280;42354;53.218;6.564;2023-07-20T06:13:22;46974.97;;;-142.92;88.85
56456;BME280;42354;53.218;6.564;2023-07-20T06:15:48;46979.06;;;-142.92;88.76
56456;BME280;42354;53.218;6.564;2023-07-20T06:18:16;46972.91;;;-142.92;87.55
56456;BME280;42354;53.218;6.564;2023-07-20T06:20:41;46991.38;;;-142.92;84.30
56456;BME280;42354;53.218;6.564;2023-07-20T06:23:07;46974.97;;;-142.92;82.32
56456;BME280;42354;53.218;6.564;2023-07-20T06:25:33;46999.59;;;-142.92;81.03
56456;BME280;42354;53.218;6.564;2023-07-20T06:28:00;46970.88;;;-142.92;79.94
56456;BME280;42354;53.218;6.564;2023-07-20T06:30:25;46987.28;;;-142.92;80.68
56456;BME280;42354;53.218;6.564;2023-07-20T06:32:51;46987.28;;;-142.92;81.51
56456;BME280;42354;53.218;6.564;2023-07-20T06:35:17;46983.19;;;-142.92;80.23
56456;BME280;42354;53.218;6.564;2023-07-20T06:37:42;46987.28;;;-142.92;78.08
56456;BME280;42354;53.218;6.564;2023-07-20T06:40:08;46974.97;;;-142.92;78.14
56456;BME280;42354;53.218;6.564;2023-07-20T06:42:36;46977.03;;;-142.92;79.33
56456;BME280;42354;53.218;6.564;2023-07-20T06:45:02;46987.28;;;-142.92;77.83
56456;BME280;42354;53.218;6.564;2023-07-20T06:47:27;46979.06;;;-142.92;76.15
56456;BME280;42354;53.218;6.564;2023-07-20T06:49:53;46985.22;;;-142.92;75.89
56456;BME280;42354;53.218;6.564;2023-07-20T06:52:18;46977.03;;;-142.92;75.81
56456;BME280;42354;53.218;6.564;2023-07-20T06:54:44;46977.03;;;-142.92;75.25
56456;BME280;42354;53.218;6.564;2023-07-20T06:57:09;46974.97;;;-142.92;75.11
56456;BME280;42354;53.218;6.564;2023-07-20T06:59:36;46977.03;;;-142.92;74.67
56456;BME280;42354;53.218;6.564;2023-07-20T07:02:02;46966.75;;;-142.92;74.56
56456;BME280;42354;53.218;6.564;2023-07-20T07:04:27;46954.44;;;-142.92;75.03
56456;BME280;42354;53.218;6.564;2023-07-20T07:06:54;46972.91;;;-142.92;73.41
56456;BME280;42354;53.218;6.564;2023-07-20T07:09:20;46979.06;;;-142.92;74.58
56456;BME280;42354;53.218;6.564;2023-07-20T07:11:46;46952.41;;;-142.92;72.95
56456;BME280;42354;53.218;6.564;2023-07-20T07:14:12;46966.75;;;-142.92;72.05
56456;BME280;42354;53.218;6.564;2023-07-20T07:16:37;46979.06;;;-142.92;71.34
56456;BME280;42354;53.218;6.564;2023-07-20T07:19:02;46968.81;;;-142.92;70.97
56456;BME280;42354;53.218;6.564;2023-07-20T07:21:28;46966.75;;;-142.92;71.35
56456;BME280;42354;53.218;6.564;2023-07-20T07:23:55;46979.06;;;-142.92;71.35
56456;BME280;42354;53.218;6.564;2023-07-20T07:26:23;46979.06;;;-142.92;70.88
56456;BME280;42354;53.218;6.564;2023-07-20T07:28:49;46954.44;;;-142.92;69.79
56456;BME280;42354;53.218;6.564;2023-07-20T07:31:14;46974.97;;;-142.92;69.28
56456;BME280;42354;53.218;6.564;2023-07-20T07:33:40;46970.88;;;-142.92;68.53
56456;BME280;42354;53.218;6.564;2023-07-20T07:36:05;46964.72;;;-142.92;68.90
56456;BME280;42354;53.218;6.564;2023-07-20T07:38:31;46983.19;;;-142.92;66.86
56456;BME280;42354;53.218;6.564;2023-07-20T07:40:58;46972.91;;;-142.92;66.53
56456;BME280;42354;53.218;6.564;2023-07-20T07:43:23;46983.19;;;-142.92;68.00
56456;BME280;42354;53.218;6.564;2023-07-20T07:45:49;46966.75;;;-142.92;69.25
56456;BME280;42354;53.218;6.564;2023-07-20T07:48:14;46972.91;;;-142.92;69.67
56456;BME280;42354;53.218;6.564;2023-07-20T07:50:39;46974.97;;;-142.92;69.54
56456;BME280;42354;53.218;6.564;2023-07-20T07:53:05;46962.66;;;-142.92;68.60
56456;BME280;42354;53.218;6.564;2023-07-20T07:55:31;46983.19;;;-142.92;67.75
56456;BME280;42354;53.218;6.564;2023-07-20T07:57:56;46977.03;;;-142.92;66.78
56456;BME280;42354;53.218;6.564;2023-07-20T08:00:22;46966.75;;;-142.92;65.76
56456;BME280;42354;53.218;6.564;2023-07-20T08:02:49;46970.88;;;-142.92;61.97
56456;BME280;42354;53.218;6.564;2023-07-20T08:05:15;46966.75;;;-142.92;62.16
56456;BME280;42354;53.218;6.564;2023-07-20T08:07:40;46968.81;;;-142.92;63.20
56456;BME280;42354;53.218;6.564;2023-07-20T08:10:07;46964.72;;;-142.92;63.19
56456;BME280;42354;53.218;6.564;2023-07-20T08:12:32;46974.97;;;-142.92;60.12
56456;BME280;42354;53.218;6.564;2023-07-20T08:14:58;46966.75;;;-142.92;60.27
56456;BME280;42354;53.218;6.564;2023-07-20T08:17:23;46972.91;;;-142.92;61.30
56456;BME280;42354;53.218;6.564;2023-07-20T08:19:50;46966.75;;;-142.92;62.01
56456;BME280;42354;53.218;6.564;2023-07-20T08:22:16;46974.97;;;-142.92;62.77
56456;BME280;42354;53.218;6.564;2023-07-20T08:24:42;46962.66;;;-142.92;61.00
56456;BME280;42354;53.218;6.564;2023-07-20T08:27:08;46977.03;;;-142.92;59.38
56456;BME280;42354;53.218;6.564;2023-07-20T08:29:35;46985.22;;;-142.92;58.50
56456;BME280;42354;53.218;6.564;2023-07-20T08:32:00;46966.75;;;-142.92;55.28
56456;BME280;42354;53.218;6.564;2023-07-20T08:34:27;46970.88;;;-142.92;50.96
56456;BME280;42354;53.218;6.564;2023-07-20T08:36:52;46974.97;;;-142.92;50.13
56456;BME280;42354;53.218;6.564;2023-07-20T08:39:18;46983.19;;;-142.92;49.24
56456;BME280;42354;53.218;6.564;2023-07-20T08:41:43;46985.22;;;-142.92;48.07
56456;BME280;42354;53.218;6.564;2023-07-20T08:44:10;46968.81;;;-142.92;47.58
56456;BME280;42354;53.218;6.564;2023-07-20T08:46:38;46979.06;;;-142.92;48.08
56456;BME280;42354;53.218;6.564;2023-07-20T08:49:04;46966.75;;;-142.92;47.73
56456;BME280;42354;53.218;6.564;2023-07-20T08:51:30;46972.91;;;-142.92;48.75
56456;BME280;42354;53.218;6.564;2023-07-20T08:53:56;46970.88;;;-142.92;49.27
56456;BME280;42354;53.218;6.564;2023-07-20T08:56:24;46972.91;;;-142.92;48.69
56456;BME280;42354;53.218;6.564;2023-07-20T08:58:51;46983.19;;;-142.92;45.86
56456;BME280;42354;53.218;6.564;2023-07-20T09:01:18;46962.66;;;-142.92;43.63
56456;BME280;42354;53.218;6.564;2023-07-20T09:03:45;46977.03;;;-142.92;44.56
56456;BME280;42354;53.218;6.564;2023-07-20T09:06:10;46962.66;;;-142.92;43.32
56456;BME280;42354;53.218;6.564;2023-07-20T09:08:39;46968.81;;;-142.92;44.08
56456;BME280;42354;53.218;6.564;2023-07-20T09:11:05;46952.41;;;-142.92;43.52
56456;BME280;42354;53.218;6.564;2023-07-20T09:13:35;46987.28;;;-142.92;42.66
56456;BME280;42354;53.218;6.564;2023-07-20T09:16:00;46970.88;;;-142.92;42.60
56456;BME280;42354;53.218;6.564;2023-07-20T09:18:30;46970.88;;;-142.92;42.70
56456;BME280;42354;53.218;6.564;2023-07-20T09:21:04;46966.75;;;-142.92;42.90
56456;BME280;42354;53.218;6.564;2023-07-20T09:23:34;46974.97;;;-142.92;43.34
56456;BME280;42354;53.218;6.564;2023-07-20T09:26:00;46966.75;;;-142.92;42.92
56456;BME280;42354;53.218;6.564;2023-07-20T09:28:26;46958.56;;;-142.92;42.47
56456;BME280;42354;53.218;6.564;2023-07-20T09:30:54;46954.44;;;-142.92;41.24
56456;BME280;42354;53.218;6.564;2023-07-20T09:33:23;46966.75;;;-142.92;40.94
56456;BME280;42354;53.218;6.564;2023-07-20T09:35:48;46958.56;;;-142.92;41.18
56456;BME280;42354;53.218;6.564;2023-07-20T09:38:14;46972.91;;;-142.92;39.43
56456;BME280;42354;53.218;6.564;2023-07-20T09:40:41;46968.81;;;-142.92;39.56
56456;BME280;42354;53.218;6.564;2023-07-20T09:43:10;46964.72;;;-142.92;39.13
56456;BME280;42354;53.218;6.564;2023-07-20T09:45:40;46964.72;;;-142.92;39.06
56456;BME280;42354;53.218;6.564;2023-07-20T09:48:08;46962.66;;;-142.92;39.08
56456;BME280;42354;53.218;6.564;2023-07-20T09:50:39;46970.88;;;-142.92;39.34
56456;BME280;42354;53.218;6.564;2023-07-20T09:53:06;46956.50;;;-142.92;40.35
56456;BME280;42354;53.218;6.564;2023-07-20T09:55:32;46962.66;;;-142.92;41.87
56456;BME280;42354;53.218;6.564;2023-07-20T09:58:00;46952.41;;;-142.92;43.53
56456;BME280;42354;53.218;6.564;2023-07-20T10:00:26;46964.72;;;-142.92;44.87
56456;BME280;42354;53.218;6.564;2023-07-20T10:02:53;46948.28;;;-142.92;45.24
56456;BME280;42354;53.218;6.564;2023-07-20T10:05:20;46974.97;;;-142.92;42.58
56456;BME280;42354;53.218;6.564;2023-07-20T10:07:50;46950.34;;;-142.92;40.85
56456;BME280;42354;53.218;6.564;2023-07-20T10:10:19;46983.19;;;-142.92;41.13
56456;BME280;42354;53.218;6.564;2023-07-20T10:12:47;46968.81;;;-142.92;40.97
56456;BME280;42354;53.218;6.564;2023-07-20T10:15:27;46954.44;;;-142.92;40.18
56456;BME280;42354;53.218;6.564;2023-07-20T10:18:02;46966.75;;;-142.92;39.64
56456;BME280;42354;53.218;6.564;2023-07-20T10:20:29;46966.75;;;-142.92;39.28
56456;BME280;42354;53.218;6.564;2023-07-20T10:22:55;46972.91;;;-142.92;38.63
56456;BME280;42354;53.218;6.564;2023-07-20T10:25:25;46966.75;;;-142.92;37.50
56456;BME280;42354;53.218;6.564;2023-07-20T10:27:50;46958.56;;;-142.92;38.29
56456;BME280;42354;53.218;6.564;2023-07-20T10:30:17;46954.44;;;-142.92;38.22
56456;BME280;42354;53.218;6.564;2023-07-20T10:32:44;46979.06;;;-142.92;39.05
56456;BME280;42354;53.218;6.564;2023-07-20T10:35:17;46966.75;;;-142.92;39.58
56456;BME280;42354;53.218;6.564;2023-07-20T10:37:53;46970.88;;;-142.92;39.25
56456;BME280;42354;53.218;6.564;2023-07-20T10:42:59;46979.06;;;-142.92;38.63
56456;BME280;42354;53.218;6.564;2023-07-20T10:45:45;46970.88;;;-142.92;38.34
56456;BME280;42354;53.218;6.564;2023-07-20T10:48:18;46972.91;;;-142.92;38.54
56456;BME280;42354;53.218;6.564;2023-07-20T10:50:44;46964.72;;;-142.92;39.01
56456;BME280;42354;53.218;6.564;2023-07-20T10:53:18;46966.75;;;-142.92;39.65
56456;BME280;42354;53.218;6.564;2023-07-20T10:55:44;46954.44;;;-142.92;39.99
56456;BME280;42354;53.218;6.564;2023-07-20T10:58:13;46968.81;;;-142.92;40.60
56456;BME280;42354;53.218;6.564;2023-07-20T11:00:57;46981.13;;;-142.92;40.51
56456;BME280;42354;53.218;6.564;2023-07-20T11:03:52;46950.34;;;-142.92;40.26
56456;BME280;42354;53.218;6.564;2023-07-20T11:09:12;46956.50;;;-142.92;38.77
56456;BME280;42354;53.218;6.564;2023-07-20T11:11:46;46970.88;;;-142.92;38.92
56456;BME280;42354;53.218;6.564;2023-07-20T11:16:49;46962.66;;;-142.92;38.44
56456;BME280;42354;53.218;6.564;2023-07-20T11:19:24;46946.25;;;-142.92;38.24
56456;BME280;42354;53.218;6.564;2023-07-20T11:21:55;46972.91;;;-142.92;37.93
56456;BME280;42354;53.218;6.564;2023-07-20T11:24:21;46954.44;;;-142.92;38.39
56456;BME280;42354;53.218;6.564;2023-07-20T11:26:55;46968.81;;;-142.92;38.28
56456;BME280;42354;53.218;6.564;2023-07-20T11:29:22;46977.03;;;-142.92;38.10
56456;BME280;42354;53.218;6.564;2023-07-20T11:31:49;46974.97;;;-142.92;37.93
56456;BME280;42354;53.218;6.564;2023-07-20T11:34:16;46974.97;;;-142.92;36.75
56456;BME280;42354;53.218;6.564;2023-07-20T11:36:44;46958.56;;;-142.92;36.35
56456;BME280;42354;53.218;6.564;2023-07-20T11:39:11;46958.56;;;-142.92;36.37
56456;BME280;42354;53.218;6.564;2023-07-20T11:41:37;46958.56;;;-142.92;36.35
56456;BME280;42354;53.218;6.564;2023-07-20T11:44:04;46966.75;;;-142.92;36.20
56456;BME280;42354;53.218;6.564;2023-07-20T11:46:31;46960.59;;;-142.92;36.24
56456;BME280;42354;53.218;6.564;2023-07-20T11:48:58;46962.66;;;-142.92;36.03
56456;BME280;42354;53.218;6.564;2023-07-20T11:51:27;46968.81;;;-142.92;35.76
56456;BME280;42354;53.218;6.564;2023-07-20T11:53:53;46972.91;;;-142.92;36.43
56456;BME280;42354;53.218;6.564;2023-07-20T11:56:19;46970.88;;;-142.92;36.62
56456;BME280;42354;53.218;6.564;2023-07-20T11:58:45;46966.75;;;-142.92;36.53
56456;BME280;42354;53.218;6.564;2023-07-20T12:01:12;46968.81;;;-142.92;36.91
56456;BME280;42354;53.218;6.564;2023-07-20T12:03:38;46983.19;;;-142.92;37.07
56456;BME280;42354;53.218;6.564;2023-07-20T12:06:10;46958.56;;;-142.92;36.04
56456;BME280;42354;53.218;6.564;2023-07-20T12:08:40;46972.91;;;-142.92;36.38
56456;BME280;42354;53.218;6.564;2023-07-20T12:11:07;46962.66;;;-142.92;36.71
56456;BME280;42354;53.218;6.564;2023-07-20T12:13:58;46962.66;;;-142.92;37.67
56456;BME280;42354;53.218;6.564;2023-07-20T12:16:27;46964.72;;;-142.92;38.11
56456;BME280;42354;53.218;6.564;2023-07-20T12:19:00;46956.50;;;-142.92;38.49
56456;BME280;42354;53.218;6.564;2023-07-20T12:21:27;46958.56;;;-142.92;39.18
56456;BME280;42354;53.218;6.564;2023-07-20T12:23:53;46958.56;;;-142.92;39.69
56456;BME280;42354;53.218;6.564;2023-07-20T12:26:19;46964.72;;;-142.92;39.76
56456;BME280;42354;53.218;6.564;2023-07-20T12:28:45;46962.66;;;-142.92;39.99
56456;BME280;42354;53.218;6.564;2023-07-20T12:31:11;46958.56;;;-142.92;39.80
56456;BME280;42354;53.218;6.564;2023-07-20T12:33:38;46966.75;;;-142.92;40.13
56456;BME280;42354;53.218;6.564;2023-07-20T12:36:04;46948.28;;;-142.92;40.15
56456;BME280;42354;53.218;6.564;2023-07-20T12:38:30;46960.59;;;-142.92;40.03
56456;BME280;42354;53.218;6.564;2023-07-20T12:40:57;46964.72;;;-142.92;40.64
56456;BME280;42354;53.218;6.564;2023-07-20T12:43:25;46958.56;;;-142.92;41.02
56456;BME280;42354;53.218;6.564;2023-07-20T12:45:50;46970.88;;;-142.92;42.08
56456;BME280;42354;53.218;6.564;2023-07-20T12:48:17;46968.81;;;-142.92;45.59
56456;BME280;42354;53.218;6.564;2023-07-20T12:50:42;46964.72;;;-142.92;51.84
56456;BME280;42354;53.218;6.564;2023-07-20T12:53:07;46964.72;;;-142.92;55.41